sensor_id;sensor_type;location;lat;lon;timestamp;P1;durP1;ratioP1;P2;durP2;ratioP2
12774;SDS011;6451;42.630;23.382;2023-03-01T00:01:51;5.33;;;4.50;;
12774;SDS011;6451;42.630;23.382;2023-03-01T00:04:23;4.77;;;4.17;;
12774;SDS011;6451;42.630;23.382;2023-03-01T00:06:53;5.77;;;4.90;;
12774;SDS011;6451;42.630;23.382;2023-03-01T00:09:39;5.33;;;4.83;;
12774;SDS011;6451;42.630;23.382;2023-03-01T00:12:11;5.43;;;4.80;;
12774;SDS011;6451;42.630;23.382;2023-03-01T00:14:38;6.00;;;5.40;;
12774;SDS011;6451;42.630;23.382;2023-03-01T00:17:10;6.73;;;6.03;;
12774;SDS011;6451;42.630;23.382;2023-03-01T00:19:39;6.70;;;6.03;;
12774;SDS011;6451;42.630;23.382;2023-03-01T00:22:10;6.80;;;6.20;;
12774;SDS011;6451;42.630;23.382;2023-03-01T00:24:43;6.90;;;6.20;;
12774;SDS011;6451;42.630;23.382;2023-03-01T00:27:11;6.30;;;5.30;;
12774;SDS011;6451;42.630;23.382;2023-03-01T00:29:39;5.47;;;4.97;;
12774;SDS011;6451;42.630;23.382;2023-03-01T00:32:09;5.47;;;4.77;;
12774;SDS011;6451;42.630;23.382;2023-03-01T00:34:37;5.00;;;4.50;;
12774;SDS011;6451;42.630;23.382;2023-03-01T00:37:13;5.30;;;4.80;;
12774;SDS011;6451;42.630;23.382;2023-03-01T00:39:54;5.00;;;4.33;;
12774;SDS011;6451;42.630;23.382;2023-03-01T00:42:31;4.53;;;3.93;;
12774;SDS011;6451;42.630;23.382;2023-03-01T00:44:59;4.60;;;4.10;;
12774;SDS011;6451;42.630;23.382;2023-03-01T00:47:29;4.30;;;3.90;;
12774;SDS011;6451;42.630;23.382;2023-03-01T00:49:57;4.40;;;4.00;;
12774;SDS011;6451;42.630;23.382;2023-03-01T00:52:31;4.10;;;3.70;;
12774;SDS011;6451;42.630;23.382;2023-03-01T00:54:59;4.10;;;3.70;;
12774;SDS011;6451;42.630;23.382;2023-03-01T00:57:29;5.90;;;4.17;;
12774;SDS011;6451;42.630;23.382;2023-03-01T01:00:07;4.27;;;3.87;;
12774;SDS011;6451;42.630;23.382;2023-03-01T01:02:38;4.00;;;3.60;;
12774;SDS011;6451;42.630;23.382;2023-03-01T01:05:07;4.07;;;3.67;;
12774;SDS011;6451;42.630;23.382;2023-03-01T01:07:35;4.40;;;4.00;;
12774;SDS011;6451;42.630;23.382;2023-03-01T01:10:03;4.20;;;3.80;;
12774;SDS011;6451;42.630;23.382;2023-03-01T01:12:43;5.20;;;3.47;;
12774;SDS011;6451;42.630;23.382;2023-03-01T01:15:13;4.37;;;3.97;;
12774;SDS011;6451;42.630;23.382;2023-03-01T01:17:43;4.70;;;3.83;;
12774;SDS011;6451;42.630;23.382;2023-03-01T01:20:11;4.07;;;3.67;;
12774;SDS011;6451;42.630;23.382;2023-03-01T01:22:38;4.10;;;3.70;;
12774;SDS011;6451;42.630;23.382;2023-03-01T01:25:13;3.67;;;3.37;;
12774;SDS011;6451;42.630;23.382;2023-03-01T01:27:40;3.47;;;3.17;;
12774;SDS011;6451;42.630;23.382;2023-03-01T01:30:11;3.87;;;3.57;;
12774;SDS011;6451;42.630;23.382;2023-03-01T01:32:44;3.47;;;3.17;;
12774;SDS011;6451;42.630;23.382;2023-03-01T01:35:12;3.43;;;3.13;;
12774;SDS011;6451;42.630;23.382;2023-03-01T01:37:42;3.27;;;3.00;;
12774;SDS011;6451;42.630;23.382;2023-03-01T01:40:10;3.30;;;3.00;;
12774;SDS011;6451;42.630;23.382;2023-03-01T01:42:38;3.17;;;2.87;;
12774;SDS011;6451;42.630;23.382;2023-03-01T01:48:02;2.80;;;2.60;;
12774;SDS011;6451;42.630;23.382;2023-03-01T01:50:33;3.03;;;2.73;;
12774;SDS011;6451;42.630;23.382;2023-03-01T01:53:05;2.90;;;2.70;;
12774;SDS011;6451;42.630;23.382;2023-03-01T01:55:35;2.83;;;2.63;;
12774;SDS011;6451;42.630;23.382;2023-03-01T01:58:06;2.57;;;2.37;;
12774;SDS011;6451;42.630;23.382;2023-03-01T02:00:38;2.50;;;2.30;;
12774;SDS011;6451;42.630;23.382;2023-03-01T02:03:08;2.73;;;2.53;;
12774;SDS011;6451;42.630;23.382;2023-03-01T02:05:38;2.63;;;2.43;;
12774;SDS011;6451;42.630;23.382;2023-03-01T02:08:12;2.30;;;2.10;;
12774;SDS011;6451;42.630;23.382;2023-03-01T02:10:42;2.93;;;2.73;;
12774;SDS011;6451;42.630;23.382;2023-03-01T02:13:11;2.50;;;2.30;;
12774;SDS011;6451;42.630;23.382;2023-03-01T02:15:40;2.83;;;2.60;;
12774;SDS011;6451;42.630;23.382;2023-03-01T02:18:11;2.90;;;2.70;;
12774;SDS011;6451;42.630;23.382;2023-03-01T02:20:43;2.80;;;2.60;;
12774;SDS011;6451;42.630;23.382;2023-03-01T02:23:18;2.87;;;2.67;;
12774;SDS011;6451;42.630;23.382;2023-03-01T02:25:48;2.73;;;2.53;;
12774;SDS011;6451;42.630;23.382;2023-03-01T02:28:30;3.20;;;3.00;;
12774;SDS011;6451;42.630;23.382;2023-03-01T02:30:58;2.60;;;2.40;;
12774;SDS011;6451;42.630;23.382;2023-03-01T02:33:43;3.40;;;3.10;;
12774;SDS011;6451;42.630;23.382;2023-03-01T02:36:15;3.03;;;2.80;;
12774;SDS011;6451;42.630;23.382;2023-03-01T02:38:51;3.60;;;2.90;;
12774;SDS011;6451;42.630;23.382;2023-03-01T02:41:20;3.23;;;3.00;;
12774;SDS011;6451;42.630;23.382;2023-03-01T02:43:50;3.40;;;3.10;;
12774;SDS011;6451;42.630;23.382;2023-03-01T02:46:18;3.60;;;3.30;;
12774;SDS011;6451;42.630;23.382;2023-03-01T02:48:49;4.20;;;3.90;;
12774;SDS011;6451;42.630;23.382;2023-03-01T02:51:30;4.93;;;3.87;;
12774;SDS011;6451;42.630;23.382;2023-03-01T02:54:10;4.20;;;3.80;;
12774;SDS011;6451;42.630;23.382;2023-03-01T02:56:46;4.10;;;3.77;;
12774;SDS011;6451;42.630;23.382;2023-03-01T02:59:16;4.83;;;4.40;;
12774;SDS011;6451;42.630;23.382;2023-03-01T03:01:46;4.80;;;4.40;;
12774;SDS011;6451;42.630;23.382;2023-03-01T03:04:14;4.87;;;4.47;;
12774;SDS011;6451;42.630;23.382;2023-03-01T03:06:45;5.43;;;4.93;;
12774;SDS011;6451;42.630;23.382;2023-03-01T03:09:13;5.70;;;5.20;;
12774;SDS011;6451;42.630;23.382;2023-03-01T03:11:41;6.63;;;6.03;;
12774;SDS011;6451;42.630;23.382;2023-03-01T03:14:08;7.03;;;6.40;;
12774;SDS011;6451;42.630;23.382;2023-03-01T03:16:40;7.00;;;6.30;;
12774;SDS011;6451;42.630;23.382;2023-03-01T03:19:10;7.30;;;6.60;;
12774;SDS011;6451;42.630;23.382;2023-03-01T03:21:37;7.20;;;6.50;;
12774;SDS011;6451;42.630;23.382;2023-03-01T03:24:04;7.50;;;6.80;;
12774;SDS011;6451;42.630;23.382;2023-03-01T03:26:31;7.30;;;6.50;;
12774;SDS011;6451;42.630;23.382;2023-03-01T03:28:59;7.33;;;6.63;;
12774;SDS011;6451;42.630;23.382;2023-03-01T03:31:28;7.80;;;6.97;;
12774;SDS011;6451;42.630;23.382;2023-03-01T03:33:57;7.50;;;6.50;;
12774;SDS011;6451;42.630;23.382;2023-03-01T03:36:25;7.90;;;7.20;;
12774;SDS011;6451;42.630;23.382;2023-03-01T03:38:52;8.50;;;6.83;;
12774;SDS011;6451;42.630;23.382;2023-03-01T03:41:19;7.87;;;7.07;;
12774;SDS011;6451;42.630;23.382;2023-03-01T03:43:46;6.90;;;6.20;;
12774;SDS011;6451;42.630;23.382;2023-03-01T03:46:14;6.63;;;5.93;;
12774;SDS011;6451;42.630;23.382;2023-03-01T03:48:43;6.73;;;6.03;;
12774;SDS011;6451;42.630;23.382;2023-03-01T03:51:15;6.53;;;5.93;;
12774;SDS011;6451;42.630;23.382;2023-03-01T03:53:43;6.47;;;5.73;;
12774;SDS011;6451;42.630;23.382;2023-03-01T03:56:11;6.40;;;5.80;;
12774;SDS011;6451;42.630;23.382;2023-03-01T03:58:39;5.50;;;5.00;;
12774;SDS011;6451;42.630;23.382;2023-03-01T04:01:06;4.50;;;4.10;;
12774;SDS011;6451;42.630;23.382;2023-03-01T04:03:34;4.20;;;3.80;;
12774;SDS011;6451;42.630;23.382;2023-03-01T04:06:03;4.20;;;3.80;;
12774;SDS011;6451;42.630;23.382;2023-03-01T04:08:32;4.00;;;3.60;;
12774;SDS011;6451;42.630;23.382;2023-03-01T04:11:01;4.23;;;3.33;;
12774;SDS011;6451;42.630;23.382;2023-03-01T04:13:50;3.50;;;3.20;;
12774;SDS011;6451;42.630;23.382;2023-03-01T04:16:19;3.13;;;2.83;;
12774;SDS011;6451;42.630;23.382;2023-03-01T04:18:47;3.60;;;3.30;;
12774;SDS011;6451;42.630;23.382;2023-03-01T04:21:15;4.40;;;4.00;;
12774;SDS011;6451;42.630;23.382;2023-03-01T04:23:43;4.97;;;3.90;;
12774;SDS011;6451;42.630;23.382;2023-03-01T04:26:10;4.67;;;4.17;;
12774;SDS011;6451;42.630;23.382;2023-03-01T04:28:39;4.80;;;4.30;;
12774;SDS011;6451;42.630;23.382;2023-03-01T04:31:14;4.50;;;4.10;;
12774;SDS011;6451;42.630;23.382;2023-03-01T04:33:44;4.63;;;4.20;;
12774;SDS011;6451;42.630;23.382;2023-03-01T04:36:13;4.87;;;4.10;;
12774;SDS011;6451;42.630;23.382;2023-03-01T04:38:41;4.40;;;4.00;;
12774;SDS011;6451;42.630;23.382;2023-03-01T04:41:14;4.80;;;4.23;;
12774;SDS011;6451;42.630;23.382;2023-03-01T04:43:43;5.47;;;4.37;;
12774;SDS011;6451;42.630;23.382;2023-03-01T04:46:11;5.80;;;4.47;;
12774;SDS011;6451;42.630;23.382;2023-03-01T04:48:41;5.60;;;4.63;;
12774;SDS011;6451;42.630;23.382;2023-03-01T04:51:09;5.73;;;4.80;;
12774;SDS011;6451;42.630;23.382;2023-03-01T04:53:39;5.40;;;4.40;;
12774;SDS011;6451;42.630;23.382;2023-03-01T04:56:07;4.87;;;3.90;;
12774;SDS011;6451;42.630;23.382;2023-03-01T05:01:08;5.97;;;4.83;;
12774;SDS011;6451;42.630;23.382;2023-03-01T05:03:40;5.63;;;4.97;;
12774;SDS011;6451;42.630;23.382;2023-03-01T05:06:09;6.40;;;5.00;;
12774;SDS011;6451;42.630;23.382;2023-03-01T05:08:37;5.27;;;4.77;;
12774;SDS011;6451;42.630;23.382;2023-03-01T05:11:04;5.67;;;4.67;;
12774;SDS011;6451;42.630;23.382;2023-03-01T05:13:34;5.33;;;4.73;;
12774;SDS011;6451;42.630;23.382;2023-03-01T05:16:02;5.40;;;4.80;;
12774;SDS011;6451;42.630;23.382;2023-03-01T05:18:31;4.57;;;3.70;;
12774;SDS011;6451;42.630;23.382;2023-03-01T05:21:01;3.10;;;2.80;;
12774;SDS011;6451;42.630;23.382;2023-03-01T05:23:31;2.80;;;2.60;;
12774;SDS011;6451;42.630;23.382;2023-03-01T05:25:58;2.60;;;2.40;;
12774;SDS011;6451;42.630;23.382;2023-03-01T05:28:26;2.57;;;2.37;;
12774;SDS011;6451;42.630;23.382;2023-03-01T05:30:54;2.77;;;2.57;;
12774;SDS011;6451;42.630;23.382;2023-03-01T05:33:26;2.50;;;2.30;;
12774;SDS011;6451;42.630;23.382;2023-03-01T05:35:53;2.43;;;1.93;;
12774;SDS011;6451;42.630;23.382;2023-03-01T05:38:20;2.20;;;2.00;;
12774;SDS011;6451;42.630;23.382;2023-03-01T05:40:50;2.33;;;1.90;;
12774;SDS011;6451;42.630;23.382;2023-03-01T05:43:17;2.23;;;1.80;;
12774;SDS011;6451;42.630;23.382;2023-03-01T05:45:45;3.40;;;2.00;;
12774;SDS011;6451;42.630;23.382;2023-03-01T05:48:13;3.27;;;2.13;;
12774;SDS011;6451;42.630;23.382;2023-03-01T05:50:43;3.80;;;2.73;;
12774;SDS011;6451;42.630;23.382;2023-03-01T05:53:11;3.40;;;2.40;;
12774;SDS011;6451;42.630;23.382;2023-03-01T05:55:40;3.20;;;2.90;;
12774;SDS011;6451;42.630;23.382;2023-03-01T05:58:09;3.00;;;2.70;;
12774;SDS011;6451;42.630;23.382;2023-03-01T06:00:40;3.50;;;2.77;;
12774;SDS011;6451;42.630;23.382;2023-03-01T06:03:09;1.70;;;1.60;;
12774;SDS011;6451;42.630;23.382;2023-03-01T06:05:36;2.00;;;1.90;;
12774;SDS011;6451;42.630;23.382;2023-03-01T06:08:06;2.30;;;2.10;;
12774;SDS011;6451;42.630;23.382;2023-03-01T06:10:34;2.70;;;1.80;;
12774;SDS011;6451;42.630;23.382;2023-03-01T06:13:00;2.00;;;1.83;;
12774;SDS011;6451;42.630;23.382;2023-03-01T06:15:27;1.90;;;1.60;;
12774;SDS011;6451;42.630;23.382;2023-03-01T06:17:56;1.60;;;1.50;;
12774;SDS011;6451;42.630;23.382;2023-03-01T06:20:25;1.67;;;1.57;;
12774;SDS011;6451;42.630;23.382;2023-03-01T06:22:55;1.77;;;1.50;;
12774;SDS011;6451;42.630;23.382;2023-03-01T06:25:24;1.80;;;1.70;;
12774;SDS011;6451;42.630;23.382;2023-03-01T06:27:52;2.63;;;1.83;;
12774;SDS011;6451;42.630;23.382;2023-03-01T06:30:20;1.90;;;1.80;;
12774;SDS011;6451;42.630;23.382;2023-03-01T06:32:48;1.90;;;1.70;;
12774;SDS011;6451;42.630;23.382;2023-03-01T06:35:15;3.03;;;2.03;;
12774;SDS011;6451;42.630;23.382;2023-03-01T06:37:44;2.27;;;1.73;;
12774;SDS011;6451;42.630;23.382;2023-03-01T06:40:11;2.00;;;1.80;;
12774;SDS011;6451;42.630;23.382;2023-03-01T06:42:41;5.13;;;2.27;;
12774;SDS011;6451;42.630;23.382;2023-03-01T06:45:10;3.63;;;2.67;;
12774;SDS011;6451;42.630;23.382;2023-03-01T06:47:37;3.67;;;3.23;;
12774;SDS011;6451;42.630;23.382;2023-03-01T06:50:04;3.07;;;2.73;;
12774;SDS011;6451;42.630;23.382;2023-03-01T06:52:32;3.37;;;2.90;;
12774;SDS011;6451;42.630;23.382;2023-03-01T06:54:59;8.93;;;3.43;;
12774;SDS011;6451;42.630;23.382;2023-03-01T06:57:26;5.80;;;4.10;;
12774;SDS011;6451;42.630;23.382;2023-03-01T06:59:54;4.93;;;3.80;;
12774;SDS011;6451;42.630;23.382;2023-03-01T07:02:21;6.43;;;4.43;;
12774;SDS011;6451;42.630;23.382;2023-03-01T07:04:48;4.10;;;3.07;;
12774;SDS011;6451;42.630;23.382;2023-03-01T07:07:16;4.53;;;3.37;;
12774;SDS011;6451;42.630;23.382;2023-03-01T07:09:43;5.47;;;3.40;;
12774;SDS011;6451;42.630;23.382;2023-03-01T07:12:10;3.43;;;2.80;;
12774;SDS011;6451;42.630;23.382;2023-03-01T07:14:37;3.90;;;3.00;;
12774;SDS011;6451;42.630;23.382;2023-03-01T07:17:06;2.40;;;2.07;;
12774;SDS011;6451;42.630;23.382;2023-03-01T07:19:33;4.90;;;2.60;;
12774;SDS011;6451;42.630;23.382;2023-03-01T07:22:00;3.00;;;2.50;;
12774;SDS011;6451;42.630;23.382;2023-03-01T07:24:30;6.40;;;3.90;;
12774;SDS011;6451;42.630;23.382;2023-03-01T07:26:57;4.20;;;3.33;;
12774;SDS011;6451;42.630;23.382;2023-03-01T07:29:24;2.73;;;2.43;;
12774;SDS011;6451;42.630;23.382;2023-03-01T07:31:51;3.60;;;2.57;;
12774;SDS011;6451;42.630;23.382;2023-03-01T07:34:19;3.27;;;2.77;;
12774;SDS011;6451;42.630;23.382;2023-03-01T07:36:46;4.57;;;2.67;;
12774;SDS011;6451;42.630;23.382;2023-03-01T07:39:13;2.70;;;2.50;;
12774;SDS011;6451;42.630;23.382;2023-03-01T07:41:40;3.00;;;2.70;;
12774;SDS011;6451;42.630;23.382;2023-03-01T07:44:06;2.60;;;2.27;;
12774;SDS011;6451;42.630;23.382;2023-03-01T07:46:34;2.57;;;2.37;;
12774;SDS011;6451;42.630;23.382;2023-03-01T07:49:01;2.60;;;2.30;;
12774;SDS011;6451;42.630;23.382;2023-03-01T07:51:29;3.00;;;2.50;;
12774;SDS011;6451;42.630;23.382;2023-03-01T07:53:56;3.70;;;2.33;;
12774;SDS011;6451;42.630;23.382;2023-03-01T07:56:23;4.07;;;2.57;;
12774;SDS011;6451;42.630;23.382;2023-03-01T07:58:50;2.67;;;2.40;;
12774;SDS011;6451;42.630;23.382;2023-03-01T08:01:17;4.03;;;2.33;;
12774;SDS011;6451;42.630;23.382;2023-03-01T08:03:47;2.33;;;2.13;;
12774;SDS011;6451;42.630;23.382;2023-03-01T08:06:15;3.23;;;2.37;;
12774;SDS011;6451;42.630;23.382;2023-03-01T08:08:44;2.50;;;2.30;;
12774;SDS011;6451;42.630;23.382;2023-03-01T08:11:12;2.93;;;1.90;;
12774;SDS011;6451;42.630;23.382;2023-03-01T08:13:40;3.43;;;2.10;;
12774;SDS011;6451;42.630;23.382;2023-03-01T08:16:08;2.30;;;2.10;;
12774;SDS011;6451;42.630;23.382;2023-03-01T08:18:37;2.10;;;1.90;;
12774;SDS011;6451;42.630;23.382;2023-03-01T08:21:05;3.93;;;2.13;;
12774;SDS011;6451;42.630;23.382;2023-03-01T08:23:33;2.57;;;2.37;;
12774;SDS011;6451;42.630;23.382;2023-03-01T08:26:06;3.07;;;2.77;;
12774;SDS011;6451;42.630;23.382;2023-03-01T08:28:34;2.90;;;2.60;;
12774;SDS011;6451;42.630;23.382;2023-03-01T08:31:01;3.00;;;2.60;;
12774;SDS011;6451;42.630;23.382;2023-03-01T08:33:28;2.90;;;2.60;;
12774;SDS011;6451;42.630;23.382;2023-03-01T08:36:02;3.17;;;2.80;;
12774;SDS011;6451;42.630;23.382;2023-03-01T08:38:29;3.20;;;2.90;;
12774;SDS011;6451;42.630;23.382;2023-03-01T08:40:59;3.30;;;2.43;;
12774;SDS011;6451;42.630;23.382;2023-03-01T08:43:28;2.60;;;2.40;;
12774;SDS011;6451;42.630;23.382;2023-03-01T08:45:55;2.60;;;2.40;;
12774;SDS011;6451;42.630;23.382;2023-03-01T08:48:23;2.60;;;2.40;;
12774;SDS011;6451;42.630;23.382;2023-03-01T08:50:50;2.63;;;2.43;;
12774;SDS011;6451;42.630;23.382;2023-03-01T08:53:17;2.70;;;2.50;;
12774;SDS011;6451;42.630;23.382;2023-03-01T08:55:44;2.90;;;2.20;;
12774;SDS011;6451;42.630;23.382;2023-03-01T08:58:10;2.50;;;2.27;;
12774;SDS011;6451;42.630;23.382;2023-03-01T09:00:39;2.43;;;2.20;;
12774;SDS011;6451;42.630;23.382;2023-03-01T09:03:06;2.63;;;2.40;;
12774;SDS011;6451;42.630;23.382;2023-03-01T09:05:33;2.60;;;2.40;;
12774;SDS011;6451;42.630;23.382;2023-03-01T09:08:01;2.43;;;2.23;;
12774;SDS011;6451;42.630;23.382;2023-03-01T09:10:28;2.60;;;2.30;;
12774;SDS011;6451;42.630;23.382;2023-03-01T09:12:55;3.67;;;2.47;;
12774;SDS011;6451;42.630;23.382;2023-03-01T09:15:22;2.60;;;2.40;;
12774;SDS011;6451;42.630;23.382;2023-03-01T09:17:50;2.67;;;2.40;;
12774;SDS011;6451;42.630;23.382;2023-03-01T09:20:17;3.00;;;2.70;;
12774;SDS011;6451;42.630;23.382;2023-03-01T09:22:44;2.40;;;2.20;;
12774;SDS011;6451;42.630;23.382;2023-03-01T09:25:11;2.90;;;2.70;;
12774;SDS011;6451;42.630;23.382;2023-03-01T09:27:38;4.43;;;2.63;;
12774;SDS011;6451;42.630;23.382;2023-03-01T09:30:05;2.97;;;2.67;;
12774;SDS011;6451;42.630;23.382;2023-03-01T09:32:33;2.90;;;2.67;;
12774;SDS011;6451;42.630;23.382;2023-03-01T09:35:02;3.47;;;2.30;;
12774;SDS011;6451;42.630;23.382;2023-03-01T09:37:32;2.93;;;2.63;;
12774;SDS011;6451;42.630;23.382;2023-03-01T09:39:59;2.90;;;2.60;;
12774;SDS011;6451;42.630;23.382;2023-03-01T09:42:27;2.90;;;2.67;;
12774;SDS011;6451;42.630;23.382;2023-03-01T09:44:57;3.47;;;2.67;;
12774;SDS011;6451;42.630;23.382;2023-03-01T09:47:29;3.23;;;2.77;;
12774;SDS011;6451;42.630;23.382;2023-03-01T09:49:59;4.20;;;3.10;;
12774;SDS011;6451;42.630;23.382;2023-03-01T09:52:36;3.43;;;2.10;;
12774;SDS011;6451;42.630;23.382;2023-03-01T09:55:08;3.20;;;2.90;;
12774;SDS011;6451;42.630;23.382;2023-03-01T09:57:40;3.17;;;2.80;;
12774;SDS011;6451;42.630;23.382;2023-03-01T10:00:15;4.17;;;3.67;;
12774;SDS011;6451;42.630;23.382;2023-03-01T10:02:51;3.27;;;2.60;;
12774;SDS011;6451;42.630;23.382;2023-03-01T10:05:33;3.03;;;2.73;;
12774;SDS011;6451;42.630;23.382;2023-03-01T10:08:13;3.10;;;2.60;;
12774;SDS011;6451;42.630;23.382;2023-03-01T10:11:12;4.30;;;3.83;;
12774;SDS011;6451;42.630;23.382;2023-03-01T10:13:46;7.43;;;4.73;;
12774;SDS011;6451;42.630;23.382;2023-03-01T10:16:20;3.97;;;3.50;;
12774;SDS011;6451;42.630;23.382;2023-03-01T10:18:52;4.00;;;3.60;;
12774;SDS011;6451;42.630;23.382;2023-03-01T10:21:23;4.00;;;3.57;;
12774;SDS011;6451;42.630;23.382;2023-03-01T10:23:52;4.57;;;3.67;;
12774;SDS011;6451;42.630;23.382;2023-03-01T10:29:22;3.77;;;3.30;;
12774;SDS011;6451;42.630;23.382;2023-03-01T10:31:53;3.87;;;3.50;;
12774;SDS011;6451;42.630;23.382;2023-03-01T10:34:21;5.70;;;3.70;;
12774;SDS011;6451;42.630;23.382;2023-03-01T10:36:55;4.37;;;3.40;;
12774;SDS011;6451;42.630;23.382;2023-03-01T10:39:25;3.90;;;3.50;;
12774;SDS011;6451;42.630;23.382;2023-03-01T10:42:02;3.63;;;3.33;;
12774;SDS011;6451;42.630;23.382;2023-03-01T10:44:41;2.53;;;2.33;;
12774;SDS011;6451;42.630;23.382;2023-03-01T10:47:14;2.17;;;1.97;;
12774;SDS011;6451;42.630;23.382;2023-03-01T10:49:55;2.20;;;2.00;;
12774;SDS011;6451;42.630;23.382;2023-03-01T10:52:28;2.13;;;1.93;;
12774;SDS011;6451;42.630;23.382;2023-03-01T10:54:58;3.20;;;2.60;;
12774;SDS011;6451;42.630;23.382;2023-03-01T10:57:29;2.50;;;2.30;;
12774;SDS011;6451;42.630;23.382;2023-03-01T11:00:13;2.10;;;1.90;;
12774;SDS011;6451;42.630;23.382;2023-03-01T11:02:45;1.93;;;1.80;;
12774;SDS011;6451;42.630;23.382;2023-03-01T11:05:22;3.10;;;2.00;;
12774;SDS011;6451;42.630;23.382;2023-03-01T11:07:52;2.47;;;2.10;;
12774;SDS011;6451;42.630;23.382;2023-03-01T11:10:22;2.40;;;2.20;;
12774;SDS011;6451;42.630;23.382;2023-03-01T11:12:50;2.50;;;2.30;;
12774;SDS011;6451;42.630;23.382;2023-03-01T11:15:23;2.87;;;2.60;;
12774;SDS011;6451;42.630;23.382;2023-03-01T11:17:52;4.20;;;3.13;;
12774;SDS011;6451;42.630;23.382;2023-03-01T11:20:24;3.30;;;3.00;;
12774;SDS011;6451;42.630;23.382;2023-03-01T11:22:55;3.30;;;3.00;;
12774;SDS011;6451;42.630;23.382;2023-03-01T11:25:25;3.37;;;3.07;;
12774;SDS011;6451;42.630;23.382;2023-03-01T11:27:54;4.17;;;3.50;;
12774;SDS011;6451;42.630;23.382;2023-03-01T11:30:23;3.10;;;2.80;;
12774;SDS011;6451;42.630;23.382;2023-03-01T11:33:08;4.30;;;3.17;;
12774;SDS011;6451;42.630;23.382;2023-03-01T11:35:45;3.50;;;3.10;;
12774;SDS011;6451;42.630;23.382;2023-03-01T11:38:22;3.60;;;2.90;;
12774;SDS011;6451;42.630;23.382;2023-03-01T11:40:52;3.93;;;3.53;;
12774;SDS011;6451;42.630;23.382;2023-03-01T11:43:26;3.50;;;3.20;;
12774;SDS011;6451;42.630;23.382;2023-03-01T11:46:09;3.90;;;3.50;;
12774;SDS011;6451;42.630;23.382;2023-03-01T11:49:02;3.50;;;3.20;;
12774;SDS011;6451;42.630;23.382;2023-03-01T11:54:21;3.40;;;3.10;;
12774;SDS011;6451;42.630;23.382;2023-03-01T11:56:57;3.43;;;3.13;;
12774;SDS011;6451;42.630;23.382;2023-03-01T11:59:43;3.40;;;3.10;;
12774;SDS011;6451;42.630;23.382;2023-03-01T12:02:37;3.33;;;3.03;;
12774;SDS011;6451;42.630;23.382;2023-03-01T12:08:24;3.70;;;3.40;;
12774;SDS011;6451;42.630;23.382;2023-03-01T12:11:02;4.23;;;3.83;;
12774;SDS011;6451;42.630;23.382;2023-03-01T12:13:48;3.40;;;3.10;;
12774;SDS011;6451;42.630;23.382;2023-03-01T12:16:28;3.60;;;3.30;;
12774;SDS011;6451;42.630;23.382;2023-03-01T12:19:20;4.13;;;3.53;;
12774;SDS011;6451;42.630;23.382;2023-03-01T12:22:05;3.63;;;3.33;;
12774;SDS011;6451;42.630;23.382;2023-03-01T12:24:46;2.77;;;2.57;;
12774;SDS011;6451;42.630;23.382;2023-03-01T12:27:39;3.57;;;3.27;;
12774;SDS011;6451;42.630;23.382;2023-03-01T12:30:25;3.67;;;3.37;;
12774;SDS011;6451;42.630;23.382;2023-03-01T12:33:05;3.50;;;3.20;;
12774;SDS011;6451;42.630;23.382;2023-03-01T12:35:48;4.07;;;3.67;;
12774;SDS011;6451;42.630;23.382;2023-03-01T12:38:31;3.80;;;3.40;;
12774;SDS011;6451;42.630;23.382;2023-03-01T12:44:12;3.90;;;3.57;;
12774;SDS011;6451;42.630;23.382;2023-03-01T12:46:52;4.10;;;3.70;;
12774;SDS011;6451;42.630;23.382;2023-03-01T12:49:31;3.80;;;3.50;;
12774;SDS011;6451;42.630;23.382;2023-03-01T12:52:03;4.03;;;3.57;;
12774;SDS011;6451;42.630;23.382;2023-03-01T12:54:40;4.10;;;3.70;;
12774;SDS011;6451;42.630;23.382;2023-03-01T12:57:09;5.10;;;3.53;;
12774;SDS011;6451;42.630;23.382;2023-03-01T12:59:47;3.87;;;3.50;;
12774;SDS011;6451;42.630;23.382;2023-03-01T13:02:26;3.53;;;3.23;;
12774;SDS011;6451;42.630;23.382;2023-03-01T13:05:07;3.90;;;3.60;;
12774;SDS011;6451;42.630;23.382;2023-03-01T13:07:51;4.00;;;3.70;;
12774;SDS011;6451;42.630;23.382;2023-03-01T13:10:26;4.40;;;3.37;;
12774;SDS011;6451;42.630;23.382;2023-03-01T13:13:08;3.87;;;3.57;;
12774;SDS011;6451;42.630;23.382;2023-03-01T13:15:40;4.20;;;3.80;;
12774;SDS011;6451;42.630;23.382;2023-03-01T13:21:03;3.77;;;3.47;;
12774;SDS011;6451;42.630;23.382;2023-03-01T13:23:34;3.80;;;3.40;;
12774;SDS011;6451;42.630;23.382;2023-03-01T13:26:05;3.83;;;3.50;;
12774;SDS011;6451;42.630;23.382;2023-03-01T13:28:40;3.87;;;3.53;;
12774;SDS011;6451;42.630;23.382;2023-03-01T13:37:09;4.10;;;3.60;;
12774;SDS011;6451;42.630;23.382;2023-03-01T13:39:39;6.63;;;4.10;;
12774;SDS011;6451;42.630;23.382;2023-03-01T13:44:58;3.70;;;3.40;;
12774;SDS011;6451;42.630;23.382;2023-03-01T13:47:27;4.13;;;3.73;;
12774;SDS011;6451;42.630;23.382;2023-03-01T13:49:56;3.60;;;3.30;;
12774;SDS011;6451;42.630;23.382;2023-03-01T13:52:38;3.57;;;3.27;;
12774;SDS011;6451;42.630;23.382;2023-03-01T13:55:14;3.67;;;3.37;;
12774;SDS011;6451;42.630;23.382;2023-03-01T13:57:45;5.37;;;3.90;;
12774;SDS011;6451;42.630;23.382;2023-03-01T14:00:29;5.47;;;4.00;;
12774;SDS011;6451;42.630;23.382;2023-03-01T14:03:08;5.10;;;3.63;;
12774;SDS011;6451;42.630;23.382;2023-03-01T14:05:39;3.90;;;3.50;;
12774;SDS011;6451;42.630;23.382;2023-03-01T14:08:17;3.53;;;3.00;;
12774;SDS011;6451;42.630;23.382;2023-03-01T14:10:49;3.37;;;3.07;;
12774;SDS011;6451;42.630;23.382;2023-03-01T14:13:29;5.23;;;3.13;;
12774;SDS011;6451;42.630;23.382;2023-03-01T14:16:12;3.70;;;3.30;;
12774;SDS011;6451;42.630;23.382;2023-03-01T14:18:51;3.73;;;3.10;;
12774;SDS011;6451;42.630;23.382;2023-03-01T14:21:30;5.03;;;3.53;;
12774;SDS011;6451;42.630;23.382;2023-03-01T14:23:57;5.83;;;3.70;;
12774;SDS011;6451;42.630;23.382;2023-03-01T14:26:24;4.37;;;3.50;;
12774;SDS011;6451;42.630;23.382;2023-03-01T14:28:51;6.13;;;3.70;;
12774;SDS011;6451;42.630;23.382;2023-03-01T14:31:32;3.97;;;3.67;;
12774;SDS011;6451;42.630;23.382;2023-03-01T14:34:04;3.33;;;3.03;;
12774;SDS011;6451;42.630;23.382;2023-03-01T14:36:33;6.97;;;3.50;;
12774;SDS011;6451;42.630;23.382;2023-03-01T14:39:00;4.30;;;3.17;;
12774;SDS011;6451;42.630;23.382;2023-03-01T14:41:32;4.73;;;3.33;;
12774;SDS011;6451;42.630;23.382;2023-03-01T14:44:02;7.17;;;3.40;;
12774;SDS011;6451;42.630;23.382;2023-03-01T14:46:32;4.33;;;3.60;;
12774;SDS011;6451;42.630;23.382;2023-03-01T14:49:02;4.17;;;3.43;;
12774;SDS011;6451;42.630;23.382;2023-03-01T14:51:30;3.63;;;3.33;;
12774;SDS011;6451;42.630;23.382;2023-03-01T14:54:04;3.40;;;3.10;;
12774;SDS011;6451;42.630;23.382;2023-03-01T14:56:45;4.50;;;3.33;;
12774;SDS011;6451;42.630;23.382;2023-03-01T14:59:13;3.83;;;3.20;;
12774;SDS011;6451;42.630;23.382;2023-03-01T15:01:40;9.40;;;3.40;;
12774;SDS011;6451;42.630;23.382;2023-03-01T15:04:09;4.50;;;3.50;;
12774;SDS011;6451;42.630;23.382;2023-03-01T15:06:40;4.63;;;3.80;;
12774;SDS011;6451;42.630;23.382;2023-03-01T15:09:11;5.43;;;4.13;;
12774;SDS011;6451;42.630;23.382;2023-03-01T15:11:41;4.40;;;3.80;;
12774;SDS011;6451;42.630;23.382;2023-03-01T15:17:18;5.97;;;4.33;;
12774;SDS011;6451;42.630;23.382;2023-03-01T15:19:47;5.23;;;4.10;;
12774;SDS011;6451;42.630;23.382;2023-03-01T15:22:16;4.70;;;4.13;;
12774;SDS011;6451;42.630;23.382;2023-03-01T15:24:46;4.60;;;4.00;;
12774;SDS011;6451;42.630;23.382;2023-03-01T15:27:16;4.17;;;3.77;;
12774;SDS011;6451;42.630;23.382;2023-03-01T15:29:48;5.87;;;3.90;;
12774;SDS011;6451;42.630;23.382;2023-03-01T15:32:24;4.63;;;3.90;;
12774;SDS011;6451;42.630;23.382;2023-03-01T15:34:54;7.00;;;4.40;;
12774;SDS011;6451;42.630;23.382;2023-03-01T15:37:39;4.70;;;4.17;;
12774;SDS011;6451;42.630;23.382;2023-03-01T15:40:20;5.07;;;4.57;;
12774;SDS011;6451;42.630;23.382;2023-03-01T15:42:56;6.37;;;4.73;;
12774;SDS011;6451;42.630;23.382;2023-03-01T15:45:25;5.97;;;4.43;;